sensor_id;sensor_type;location;lat;lon;timestamp;P1;durP1;ratioP1;P2;durP2;ratioP2
82637;SDS011;72318;36.628;-121.932;2023-09-12T00:01:09;6.82;;;0.60;;
82637;SDS011;72318;36.628;-121.932;2023-09-12T00:03:35;8.52;;;1.25;;
82637;SDS011;72318;36.628;-121.932;2023-09-12T00:06:02;7.55;;;0.90;;
82637;SDS011;72318;36.628;-121.932;2023-09-12T00:08:29;8.68;;;1.33;;
82637;SDS011;72318;36.628;-121.932;2023-09-12T00:11:03;15.52;;;1.90;;
82637;SDS011;72318;36.628;-121.932;2023-09-12T00:13:32;10.25;;;0.60;;
82637;SDS011;72318;36.628;-121.932;2023-09-12T00:15:58;14.77;;;1.10;;
82637;SDS011;72318;36.628;-121.932;2023-09-12T00:18:24;6.88;;;0.88;;
82637;SDS011;72318;36.628;-121.932;2023-09-12T00:20:51;12.63;;;1.10;;
82637;SDS011;72318;36.628;-121.932;2023-09-12T00:23:18;9.55;;;1.30;;
82637;SDS011;72318;36.628;-121.932;2023-09-12T00:25:46;15.95;;;1.63;;
82637;SDS011;72318;36.628;-121.932;2023-09-12T00:28:12;9.55;;;1.80;;
82637;SDS011;72318;36.628;-121.932;2023-09-12T00:30:38;8.38;;;0.82;;
82637;SDS011;72318;36.628;-121.932;2023-09-12T00:33:04;11.07;;;1.75;;
82637;SDS011;72318;36.628;-121.932;2023-09-12T00:35:32;9.68;;;1.70;;
82637;SDS011;72318;36.628;-121.932;2023-09-12T00:37:59;10.45;;;1.90;;
82637;SDS011;72318;36.628;-121.932;2023-09-12T00:40:25;16.52;;;2.55;;
82637;SDS011;72318;36.628;-121.932;2023-09-12T00:42:51;10.82;;;1.58;;
82637;SDS011;72318;36.628;-121.932;2023-09-12T00:45:17;13.90;;;2.05;;
82637;SDS011;72318;36.628;-121.932;2023-09-12T00:47:44;19.95;;;2.30;;
82637;SDS011;72318;36.628;-121.932;2023-09-12T00:50:10;10.60;;;2.17;;
82637;SDS011;72318;36.628;-121.932;2023-09-12T00:52:40;21.23;;;2.92;;
82637;SDS011;72318;36.628;-121.932;2023-09-12T00:55:08;27.23;;;2.65;;
82637;SDS011;72318;36.628;-121.932;2023-09-12T00:57:35;26.98;;;3.38;;
82637;SDS011;72318;36.628;-121.932;2023-09-12T01:00:02;12.00;;;1.52;;
82637;SDS011;72318;36.628;-121.932;2023-09-12T01:02:41;14.13;;;2.33;;
82637;SDS011;72318;36.628;-121.932;2023-09-12T01:05:08;15.38;;;1.73;;
82637;SDS011;72318;36.628;-121.932;2023-09-12T01:07:37;10.82;;;1.35;;
82637;SDS011;72318;36.628;-121.932;2023-09-12T01:10:04;12.63;;;1.67;;
82637;SDS011;72318;36.628;-121.932;2023-09-12T01:12:31;13.00;;;1.33;;
82637;SDS011;72318;36.628;-121.932;2023-09-12T01:14:57;12.27;;;1.95;;
82637;SDS011;72318;36.628;-121.932;2023-09-12T01:17:24;11.90;;;1.23;;
82637;SDS011;72318;36.628;-121.932;2023-09-12T01:19:51;19.00;;;1.73;;
82637;SDS011;72318;36.628;-121.932;2023-09-12T01:27:53;13.73;;;1.85;;
82637;SDS011;72318;36.628;-121.932;2023-09-12T01:32:50;15.70;;;1.77;;
82637;SDS011;72318;36.628;-121.932;2023-09-12T01:35:17;11.32;;;1.75;;
82637;SDS011;72318;36.628;-121.932;2023-09-12T01:37:44;10.25;;;1.52;;
82637;SDS011;72318;36.628;-121.932;2023-09-12T01:40:10;12.43;;;0.98;;
82637;SDS011;72318;36.628;-121.932;2023-09-12T01:42:37;14.23;;;1.50;;
82637;SDS011;72318;36.628;-121.932;2023-09-12T01:45:09;17.55;;;2.28;;
82637;SDS011;72318;36.628;-121.932;2023-09-12T01:47:38;15.57;;;1.48;;
82637;SDS011;72318;36.628;-121.932;2023-09-12T01:50:05;12.93;;;2.10;;
82637;SDS011;72318;36.628;-121.932;2023-09-12T01:52:34;14.40;;;1.67;;
82637;SDS011;72318;36.628;-121.932;2023-09-12T01:55:01;13.15;;;2.75;;
82637;SDS011;72318;36.628;-121.932;2023-09-12T01:57:29;15.63;;;1.63;;
82637;SDS011;72318;36.628;-121.932;2023-09-12T01:59:56;9.73;;;1.20;;
82637;SDS011;72318;36.628;-121.932;2023-09-12T02:02:22;12.98;;;1.38;;
82637;SDS011;72318;36.628;-121.932;2023-09-12T02:04:58;11.55;;;1.67;;
82637;SDS011;72318;36.628;-121.932;2023-09-12T02:07:28;6.82;;;1.20;;
82637;SDS011;72318;36.628;-121.932;2023-09-12T02:09:58;10.88;;;1.65;;
82637;SDS011;72318;36.628;-121.932;2023-09-12T02:12:25;12.52;;;1.30;;
82637;SDS011;72318;36.628;-121.932;2023-09-12T02:14:51;10.55;;;1.30;;
82637;SDS011;72318;36.628;-121.932;2023-09-12T02:17:17;12.43;;;1.35;;
82637;SDS011;72318;36.628;-121.932;2023-09-12T02:19:46;12.07;;;1.45;;
82637;SDS011;72318;36.628;-121.932;2023-09-12T02:22:13;12.43;;;1.73;;
82637;SDS011;72318;36.628;-121.932;2023-09-12T02:24:39;13.40;;;1.00;;
82637;SDS011;72318;36.628;-121.932;2023-09-12T02:27:05;11.77;;;1.13;;
82637;SDS011;72318;36.628;-121.932;2023-09-12T02:29:31;18.20;;;1.98;;
82637;SDS011;72318;36.628;-121.932;2023-09-12T02:31:59;14.05;;;2.28;;
82637;SDS011;72318;36.628;-121.932;2023-09-12T02:34:25;10.48;;;1.17;;
82637;SDS011;72318;36.628;-121.932;2023-09-12T02:36:51;12.15;;;1.27;;
82637;SDS011;72318;36.628;-121.932;2023-09-12T02:39:18;10.10;;;0.93;;
82637;SDS011;72318;36.628;-121.932;2023-09-12T02:41:47;14.13;;;1.52;;
82637;SDS011;72318;36.628;-121.932;2023-09-12T02:44:13;9.70;;;1.13;;
82637;SDS011;72318;36.628;-121.932;2023-09-12T02:46:40;12.57;;;1.58;;
82637;SDS011;72318;36.628;-121.932;2023-09-12T02:49:06;12.18;;;1.30;;
82637;SDS011;72318;36.628;-121.932;2023-09-12T02:51:32;10.88;;;1.50;;
82637;SDS011;72318;36.628;-121.932;2023-09-12T02:53:58;13.50;;;1.90;;
82637;SDS011;72318;36.628;-121.932;2023-09-12T02:56:24;13.88;;;1.23;;
82637;SDS011;72318;36.628;-121.932;2023-09-12T02:58:51;14.70;;;1.65;;
82637;SDS011;72318;36.628;-121.932;2023-09-12T03:01:17;11.65;;;1.33;;
82637;SDS011;72318;36.628;-121.932;2023-09-12T03:03:48;14.25;;;1.25;;
82637;SDS011;72318;36.628;-121.932;2023-09-12T03:06:15;11.00;;;1.77;;
82637;SDS011;72318;36.628;-121.932;2023-09-12T03:08:43;17.30;;;2.78;;
82637;SDS011;72318;36.628;-121.932;2023-09-12T03:11:12;15.40;;;1.75;;
82637;SDS011;72318;36.628;-121.932;2023-09-12T03:13:39;14.52;;;1.58;;
82637;SDS011;72318;36.628;-121.932;2023-09-12T03:16:10;18.73;;;2.20;;
82637;SDS011;72318;36.628;-121.932;2023-09-12T03:18:37;19.73;;;1.73;;
82637;SDS011;72318;36.628;-121.932;2023-09-12T03:21:04;15.50;;;1.60;;
82637;SDS011;72318;36.628;-121.932;2023-09-12T03:23:30;16.85;;;2.42;;
82637;SDS011;72318;36.628;-121.932;2023-09-12T03:26:01;11.73;;;1.10;;
82637;SDS011;72318;36.628;-121.932;2023-09-12T03:28:29;14.77;;;1.38;;
82637;SDS011;72318;36.628;-121.932;2023-09-12T03:31:11;15.45;;;1.75;;
82637;SDS011;72318;36.628;-121.932;2023-09-12T03:33:38;19.58;;;2.63;;
82637;SDS011;72318;36.628;-121.932;2023-09-12T03:36:06;16.67;;;1.40;;
82637;SDS011;72318;36.628;-121.932;2023-09-12T03:38:33;12.32;;;1.42;;
82637;SDS011;72318;36.628;-121.932;2023-09-12T03:40:59;14.48;;;1.50;;
82637;SDS011;72318;36.628;-121.932;2023-09-12T03:43:26;13.82;;;1.27;;
82637;SDS011;72318;36.628;-121.932;2023-09-12T03:45:53;16.80;;;1.33;;
82637;SDS011;72318;36.628;-121.932;2023-09-12T03:48:19;14.00;;;1.48;;
82637;SDS011;72318;36.628;-121.932;2023-09-12T03:50:46;13.40;;;2.10;;
82637;SDS011;72318;36.628;-121.932;2023-09-12T03:53:13;18.60;;;1.80;;
82637;SDS011;72318;36.628;-121.932;2023-09-12T03:55:40;10.13;;;1.52;;
82637;SDS011;72318;36.628;-121.932;2023-09-12T03:58:06;14.10;;;1.77;;
82637;SDS011;72318;36.628;-121.932;2023-09-12T04:00:33;15.15;;;1.75;;
82637;SDS011;72318;36.628;-121.932;2023-09-12T04:02:59;10.13;;;1.40;;
82637;SDS011;72318;36.628;-121.932;2023-09-12T04:05:26;15.25;;;2.10;;
82637;SDS011;72318;36.628;-121.932;2023-09-12T04:07:52;14.40;;;1.50;;
82637;SDS011;72318;36.628;-121.932;2023-09-12T04:10:19;15.65;;;2.05;;
82637;SDS011;72318;36.628;-121.932;2023-09-12T04:12:46;14.85;;;1.48;;
82637;SDS011;72318;36.628;-121.932;2023-09-12T04:15:12;14.40;;;2.15;;
82637;SDS011;72318;36.628;-121.932;2023-09-12T04:17:39;16.48;;;2.03;;
82637;SDS011;72318;36.628;-121.932;2023-09-12T04:20:06;12.80;;;1.75;;
82637;SDS011;72318;36.628;-121.932;2023-09-12T04:22:33;16.35;;;1.58;;
82637;SDS011;72318;36.628;-121.932;2023-09-12T04:24:59;12.77;;;2.20;;
82637;SDS011;72318;36.628;-121.932;2023-09-12T04:27:25;16.05;;;1.60;;
82637;SDS011;72318;36.628;-121.932;2023-09-12T04:29:52;10.65;;;2.28;;
82637;SDS011;72318;36.628;-121.932;2023-09-12T04:32:18;20.90;;;2.92;;
82637;SDS011;72318;36.628;-121.932;2023-09-12T04:34:49;18.50;;;1.90;;
82637;SDS011;72318;36.628;-121.932;2023-09-12T04:37:15;13.68;;;1.88;;
82637;SDS011;72318;36.628;-121.932;2023-09-12T04:39:42;12.43;;;2.00;;
82637;SDS011;72318;36.628;-121.932;2023-09-12T04:42:08;17.20;;;2.33;;
82637;SDS011;72318;36.628;-121.932;2023-09-12T04:44:35;11.02;;;1.45;;
82637;SDS011;72318;36.628;-121.932;2023-09-12T04:47:01;14.95;;;2.22;;
82637;SDS011;72318;36.628;-121.932;2023-09-12T04:49:28;12.50;;;1.63;;
82637;SDS011;72318;36.628;-121.932;2023-09-12T04:51:54;14.20;;;1.73;;
82637;SDS011;72318;36.628;-121.932;2023-09-12T04:54:20;13.52;;;1.73;;
82637;SDS011;72318;36.628;-121.932;2023-09-12T04:56:46;14.25;;;2.08;;
82637;SDS011;72318;36.628;-121.932;2023-09-12T04:59:13;15.50;;;2.40;;
82637;SDS011;72318;36.628;-121.932;2023-09-12T05:01:39;16.63;;;1.98;;
82637;SDS011;72318;36.628;-121.932;2023-09-12T05:04:06;16.67;;;3.17;;
82637;SDS011;72318;36.628;-121.932;2023-09-12T05:06:32;19.38;;;3.13;;
82637;SDS011;72318;36.628;-121.932;2023-09-12T05:08:59;20.17;;;2.25;;
82637;SDS011;72318;36.628;-121.932;2023-09-12T05:11:25;24.50;;;2.95;;
82637;SDS011;72318;36.628;-121.932;2023-09-12T05:13:51;15.98;;;2.92;;
82637;SDS011;72318;36.628;-121.932;2023-09-12T05:16:18;17.98;;;2.83;;
82637;SDS011;72318;36.628;-121.932;2023-09-12T05:18:44;17.92;;;2.53;;
82637;SDS011;72318;36.628;-121.932;2023-09-12T05:21:11;18.05;;;2.75;;
82637;SDS011;72318;36.628;-121.932;2023-09-12T05:23:40;18.65;;;2.35;;
82637;SDS011;72318;36.628;-121.932;2023-09-12T05:26:09;25.00;;;3.10;;
82637;SDS011;72318;36.628;-121.932;2023-09-12T05:28:35;22.27;;;2.80;;
82637;SDS011;72318;36.628;-121.932;2023-09-12T05:31:01;20.92;;;3.28;;
82637;SDS011;72318;36.628;-121.932;2023-09-12T05:33:28;19.10;;;2.85;;
82637;SDS011;72318;36.628;-121.932;2023-09-12T05:35:54;19.60;;;2.88;;
82637;SDS011;72318;36.628;-121.932;2023-09-12T05:38:20;25.02;;;3.53;;
82637;SDS011;72318;36.628;-121.932;2023-09-12T05:40:47;22.13;;;3.42;;
82637;SDS011;72318;36.628;-121.932;2023-09-12T05:43:15;17.70;;;2.67;;
82637;SDS011;72318;36.628;-121.932;2023-09-12T05:45:42;20.95;;;3.30;;
82637;SDS011;72318;36.628;-121.932;2023-09-12T05:48:09;21.55;;;2.90;;
82637;SDS011;72318;36.628;-121.932;2023-09-12T05:50:38;32.70;;;3.72;;
82637;SDS011;72318;36.628;-121.932;2023-09-12T05:53:05;20.00;;;3.03;;
82637;SDS011;72318;36.628;-121.932;2023-09-12T05:55:31;21.27;;;3.47;;
82637;SDS011;72318;36.628;-121.932;2023-09-12T05:57:57;27.23;;;3.85;;
82637;SDS011;72318;36.628;-121.932;2023-09-12T06:00:23;22.70;;;3.67;;
82637;SDS011;72318;36.628;-121.932;2023-09-12T06:02:50;17.95;;;3.33;;
82637;SDS011;72318;36.628;-121.932;2023-09-12T06:05:16;22.30;;;4.25;;
82637;SDS011;72318;36.628;-121.932;2023-09-12T06:07:42;28.48;;;3.25;;
82637;SDS011;72318;36.628;-121.932;2023-09-12T06:10:09;25.38;;;3.70;;
82637;SDS011;72318;36.628;-121.932;2023-09-12T06:12:35;21.48;;;3.65;;
82637;SDS011;72318;36.628;-121.932;2023-09-12T06:15:05;20.45;;;3.10;;
82637;SDS011;72318;36.628;-121.932;2023-09-12T06:17:31;30.27;;;3.28;;
82637;SDS011;72318;36.628;-121.932;2023-09-12T06:19:58;35.08;;;3.55;;
82637;SDS011;72318;36.628;-121.932;2023-09-12T06:22:24;27.33;;;4.00;;
82637;SDS011;72318;36.628;-121.932;2023-09-12T06:24:51;21.92;;;3.08;;
82637;SDS011;72318;36.628;-121.932;2023-09-12T06:27:17;23.90;;;4.53;;
82637;SDS011;72318;36.628;-121.932;2023-09-12T06:29:47;23.45;;;4.03;;
82637;SDS011;72318;36.628;-121.932;2023-09-12T06:32:14;24.23;;;3.40;;
82637;SDS011;72318;36.628;-121.932;2023-09-12T06:34:41;20.80;;;2.78;;
82637;SDS011;72318;36.628;-121.932;2023-09-12T06:37:08;22.85;;;3.80;;
82637;SDS011;72318;36.628;-121.932;2023-09-12T06:39:36;27.73;;;3.33;;
82637;SDS011;72318;36.628;-121.932;2023-09-12T06:42:02;20.70;;;3.47;;
82637;SDS011;72318;36.628;-121.932;2023-09-12T06:44:29;24.42;;;4.18;;
82637;SDS011;72318;36.628;-121.932;2023-09-12T06:46:55;25.75;;;4.25;;
82637;SDS011;72318;36.628;-121.932;2023-09-12T06:49:21;20.00;;;3.22;;
82637;SDS011;72318;36.628;-121.932;2023-09-12T06:51:47;20.50;;;3.55;;
82637;SDS011;72318;36.628;-121.932;2023-09-12T06:54:14;29.15;;;3.90;;
82637;SDS011;72318;36.628;-121.932;2023-09-12T06:56:40;20.40;;;2.92;;
82637;SDS011;72318;36.628;-121.932;2023-09-12T06:59:08;21.92;;;2.85;;
82637;SDS011;72318;36.628;-121.932;2023-09-12T07:01:37;23.77;;;3.15;;
82637;SDS011;72318;36.628;-121.932;2023-09-12T07:04:03;20.70;;;3.88;;
82637;SDS011;72318;36.628;-121.932;2023-09-12T07:06:29;25.00;;;3.05;;
82637;SDS011;72318;36.628;-121.932;2023-09-12T07:08:56;26.23;;;3.15;;
82637;SDS011;72318;36.628;-121.932;2023-09-12T07:11:22;22.25;;;2.95;;
82637;SDS011;72318;36.628;-121.932;2023-09-12T07:13:49;21.17;;;3.67;;
82637;SDS011;72318;36.628;-121.932;2023-09-12T07:16:15;26.92;;;3.13;;
82637;SDS011;72318;36.628;-121.932;2023-09-12T07:18:41;22.27;;;2.58;;
82637;SDS011;72318;36.628;-121.932;2023-09-12T07:21:08;24.25;;;3.40;;
82637;SDS011;72318;36.628;-121.932;2023-09-12T07:23:36;18.48;;;3.47;;
82637;SDS011;72318;36.628;-121.932;2023-09-12T07:26:03;22.20;;;3.30;;
82637;SDS011;72318;36.628;-121.932;2023-09-12T07:28:29;21.60;;;3.88;;
82637;SDS011;72318;36.628;-121.932;2023-09-12T07:30:56;19.40;;;3.65;;
82637;SDS011;72318;36.628;-121.932;2023-09-12T07:33:23;26.08;;;4.00;;
82637;SDS011;72318;36.628;-121.932;2023-09-12T07:35:52;25.38;;;3.25;;
82637;SDS011;72318;36.628;-121.932;2023-09-12T07:38:19;27.70;;;3.60;;
82637;SDS011;72318;36.628;-121.932;2023-09-12T07:40:46;16.63;;;2.88;;
82637;SDS011;72318;36.628;-121.932;2023-09-12T07:43:12;22.20;;;2.97;;
82637;SDS011;72318;36.628;-121.932;2023-09-12T07:45:38;19.50;;;3.75;;
82637;SDS011;72318;36.628;-121.932;2023-09-12T07:48:08;23.83;;;3.55;;
82637;SDS011;72318;36.628;-121.932;2023-09-12T07:50:38;25.08;;;3.33;;
82637;SDS011;72318;36.628;-121.932;2023-09-12T07:53:04;27.85;;;4.00;;
82637;SDS011;72318;36.628;-121.932;2023-09-12T07:55:31;25.45;;;3.17;;
82637;SDS011;72318;36.628;-121.932;2023-09-12T07:58:03;20.20;;;3.38;;
82637;SDS011;72318;36.628;-121.932;2023-09-12T08:00:30;22.40;;;3.10;;
82637;SDS011;72318;36.628;-121.932;2023-09-12T08:02:56;19.60;;;3.00;;
82637;SDS011;72318;36.628;-121.932;2023-09-12T08:05:22;25.98;;;3.42;;
82637;SDS011;72318;36.628;-121.932;2023-09-12T08:07:48;21.27;;;2.88;;
82637;SDS011;72318;36.628;-121.932;2023-09-12T08:10:14;33.83;;;4.55;;
82637;SDS011;72318;36.628;-121.932;2023-09-12T08:12:41;30.80;;;3.67;;
82637;SDS011;72318;36.628;-121.932;2023-09-12T08:15:07;38.78;;;4.55;;
82637;SDS011;72318;36.628;-121.932;2023-09-12T08:17:34;24.25;;;4.05;;
82637;SDS011;72318;36.628;-121.932;2023-09-12T08:20:00;31.65;;;3.58;;
82637;SDS011;72318;36.628;-121.932;2023-09-12T08:22:27;28.40;;;3.50;;
82637;SDS011;72318;36.628;-121.932;2023-09-12T08:24:53;35.58;;;4.60;;
82637;SDS011;72318;36.628;-121.932;2023-09-12T08:27:19;23.35;;;3.85;;
82637;SDS011;72318;36.628;-121.932;2023-09-12T08:29:46;34.10;;;4.85;;
82637;SDS011;72318;36.628;-121.932;2023-09-12T08:32:13;26.65;;;4.90;;
82637;SDS011;72318;36.628;-121.932;2023-09-12T08:34:40;31.20;;;3.90;;
82637;SDS011;72318;36.628;-121.932;2023-09-12T08:37:06;25.25;;;4.15;;
82637;SDS011;72318;36.628;-121.932;2023-09-12T08:39:42;23.77;;;3.35;;
82637;SDS011;72318;36.628;-121.932;2023-09-12T08:42:14;23.85;;;3.35;;
82637;SDS011;72318;36.628;-121.932;2023-09-12T08:44:41;29.60;;;3.92;;
82637;SDS011;72318;36.628;-121.932;2023-09-12T08:47:08;29.45;;;3.65;;
82637;SDS011;72318;36.628;-121.932;2023-09-12T08:49:35;21.50;;;3.22;;
82637;SDS011;72318;36.628;-121.932;2023-09-12T08:52:07;25.52;;;2.95;;
82637;SDS011;72318;36.628;-121.932;2023-09-12T08:54:34;22.30;;;3.50;;
82637;SDS011;72318;36.628;-121.932;2023-09-12T08:57:03;24.08;;;3.25;;
82637;SDS011;72318;36.628;-121.932;2023-09-12T08:59:32;28.08;;;2.97;;
82637;SDS011;72318;36.628;-121.932;2023-09-12T09:02:00;15.93;;;1.52;;
82637;SDS011;72318;36.628;-121.932;2023-09-12T09:04:28;20.38;;;2.05;;
82637;SDS011;72318;36.628;-121.932;2023-09-12T09:06:56;16.92;;;2.30;;
82637;SDS011;72318;36.628;-121.932;2023-09-12T09:09:25;21.08;;;3.30;;
82637;SDS011;72318;36.628;-121.932;2023-09-12T09:11:55;18.88;;;3.17;;
82637;SDS011;72318;36.628;-121.932;2023-09-12T09:14:21;19.73;;;2.45;;
82637;SDS011;72318;36.628;-121.932;2023-09-12T09:16:48;17.63;;;1.85;;
82637;SDS011;72318;36.628;-121.932;2023-09-12T09:19:15;22.90;;;3.20;;
82637;SDS011;72318;36.628;-121.932;2023-09-12T09:21:43;18.27;;;2.83;;
82637;SDS011;72318;36.628;-121.932;2023-09-12T09:24:12;20.33;;;2.95;;
82637;SDS011;72318;36.628;-121.932;2023-09-12T09:26:41;18.45;;;2.15;;
82637;SDS011;72318;36.628;-121.932;2023-09-12T09:29:24;28.67;;;3.28;;
82637;SDS011;72318;36.628;-121.932;2023-09-12T09:31:50;19.10;;;2.95;;
82637;SDS011;72318;36.628;-121.932;2023-09-12T09:34:18;25.38;;;3.10;;
82637;SDS011;72318;36.628;-121.932;2023-09-12T09:36:49;16.00;;;2.83;;
82637;SDS011;72318;36.628;-121.932;2023-09-12T09:39:23;19.25;;;2.90;;
82637;SDS011;72318;36.628;-121.932;2023-09-12T09:41:54;13.93;;;2.40;;
82637;SDS011;72318;36.628;-121.932;2023-09-12T09:44:22;22.80;;;2.40;;
82637;SDS011;72318;36.628;-121.932;2023-09-12T09:46:55;24.17;;;2.92;;
82637;SDS011;72318;36.628;-121.932;2023-09-12T09:49:28;19.35;;;2.97;;
82637;SDS011;72318;36.628;-121.932;2023-09-12T09:51:57;18.90;;;3.05;;
82637;SDS011;72318;36.628;-121.932;2023-09-12T09:54:24;17.00;;;2.58;;
82637;SDS011;72318;36.628;-121.932;2023-09-12T09:56:55;14.57;;;2.88;;
82637;SDS011;72318;36.628;-121.932;2023-09-12T09:59:25;16.13;;;2.13;;
82637;SDS011;72318;36.628;-121.932;2023-09-12T10:01:56;16.38;;;2.38;;
82637;SDS011;72318;36.628;-121.932;2023-09-12T10:04:24;23.17;;;3.00;;
82637;SDS011;72318;36.628;-121.932;2023-09-12T10:06:54;19.27;;;2.38;;
82637;SDS011;72318;36.628;-121.932;2023-09-12T10:09:23;17.58;;;2.47;;
82637;SDS011;72318;36.628;-121.932;2023-09-12T10:11:52;19.08;;;2.25;;
82637;SDS011;72318;36.628;-121.932;2023-09-12T10:14:20;19.98;;;2.30;;
82637;SDS011;72318;36.628;-121.932;2023-09-12T10:16:50;32.40;;;3.30;;
82637;SDS011;72318;36.628;-121.932;2023-09-12T10:24:35;21.58;;;2.63;;
82637;SDS011;72318;36.628;-121.932;2023-09-12T10:27:03;20.55;;;4.28;;
82637;SDS011;72318;36.628;-121.932;2023-09-12T10:29:30;21.20;;;3.22;;
82637;SDS011;72318;36.628;-121.932;2023-09-12T10:31:57;20.65;;;3.00;;
82637;SDS011;72318;36.628;-121.932;2023-09-12T10:34:24;13.98;;;2.97;;
82637;SDS011;72318;36.628;-121.932;2023-09-12T10:36:51;17.80;;;2.80;;
82637;SDS011;72318;36.628;-121.932;2023-09-12T10:39:19;17.38;;;2.15;;
82637;SDS011;72318;36.628;-121.932;2023-09-12T10:41:48;15.50;;;2.63;;
82637;SDS011;72318;36.628;-121.932;2023-09-12T10:44:17;17.63;;;2.67;;
82637;SDS011;72318;36.628;-121.932;2023-09-12T10:46:44;16.58;;;2.60;;
82637;SDS011;72318;36.628;-121.932;2023-09-12T10:49:12;17.85;;;1.63;;
82637;SDS011;72318;36.628;-121.932;2023-09-12T10:51:39;18.35;;;2.33;;
82637;SDS011;72318;36.628;-121.932;2023-09-12T10:54:06;22.90;;;2.75;;
82637;SDS011;72318;36.628;-121.932;2023-09-12T10:56:33;23.73;;;2.97;;
82637;SDS011;72318;36.628;-121.932;2023-09-12T11:01:32;11.10;;;2.28;;
82637;SDS011;72318;36.628;-121.932;2023-09-12T11:04:42;25.23;;;2.38;;
82637;SDS011;72318;36.628;-121.932;2023-09-12T11:06:55;14.73;;;2.75;;
82637;SDS011;72318;36.628;-121.932;2023-09-12T11:09:24;21.63;;;3.00;;
82637;SDS011;72318;36.628;-121.932;2023-09-12T11:11:55;16.38;;;2.17;;
82637;SDS011;72318;36.628;-121.932;2023-09-12T11:14:24;19.45;;;3.28;;
82637;SDS011;72318;36.628;-121.932;2023-09-12T11:19:45;19.95;;;2.42;;
82637;SDS011;72318;36.628;-121.932;2023-09-12T11:22:36;22.17;;;3.55;;
82637;SDS011;72318;36.628;-121.932;2023-09-12T11:25:05;18.02;;;3.35;;
82637;SDS011;72318;36.628;-121.932;2023-09-12T11:30:19;23.67;;;3.47;;
82637;SDS011;72318;36.628;-121.932;2023-09-12T11:32:47;19.67;;;3.50;;
82637;SDS011;72318;36.628;-121.932;2023-09-12T11:35:16;24.48;;;3.88;;
82637;SDS011;72318;36.628;-121.932;2023-09-12T11:37:48;25.90;;;3.35;;
82637;SDS011;72318;36.628;-121.932;2023-09-12T11:42:42;14.90;;;1.65;;
82637;SDS011;72318;36.628;-121.932;2023-09-12T11:45:09;21.08;;;3.47;;
82637;SDS011;72318;36.628;-121.932;2023-09-12T11:47:39;13.70;;;3.35;;
82637;SDS011;72318;36.628;-121.932;2023-09-12T11:50:07;14.85;;;2.08;;
82637;SDS011;72318;36.628;-121.932;2023-09-12T11:52:37;22.48;;;2.33;;
82637;SDS011;72318;36.628;-121.932;2023-09-12T11:55:03;19.73;;;2.55;;
82637;SDS011;72318;36.628;-121.932;2023-09-12T11:57:30;13.80;;;2.83;;
82637;SDS011;72318;36.628;-121.932;2023-09-12T11:59:57;15.85;;;2.55;;
82637;SDS011;72318;36.628;-121.932;2023-09-12T12:02:23;28.15;;;3.08;;
82637;SDS011;72318;36.628;-121.932;2023-09-12T12:04:50;22.30;;;3.70;;
82637;SDS011;72318;36.628;-121.932;2023-09-12T12:07:19;31.80;;;3.97;;
82637;SDS011;72318;36.628;-121.932;2023-09-12T12:09:45;24.13;;;3.47;;
82637;SDS011;72318;36.628;-121.932;2023-09-12T12:12:12;22.95;;;3.42;;
82637;SDS011;72318;36.628;-121.932;2023-09-12T12:14:40;18.17;;;2.67;;
82637;SDS011;72318;36.628;-121.932;2023-09-12T12:17:07;22.48;;;2.72;;
82637;SDS011;72318;36.628;-121.932;2023-09-12T12:19:35;24.38;;;3.90;;
82637;SDS011;72318;36.628;-121.932;2023-09-12T12:22:02;24.02;;;3.58;;
82637;SDS011;72318;36.628;-121.932;2023-09-12T12:24:36;21.98;;;3.47;;
82637;SDS011;72318;36.628;-121.932;2023-09-12T12:27:04;25.92;;;4.22;;
82637;SDS011;72318;36.628;-121.932;2023-09-12T12:29:31;18.42;;;2.88;;
82637;SDS011;72318;36.628;-121.932;2023-09-12T12:32:02;23.45;;;4.35;;
82637;SDS011;72318;36.628;-121.932;2023-09-12T12:34:30;20.60;;;3.42;;
82637;SDS011;72318;36.628;-121.932;2023-09-12T12:36:57;25.52;;;3.33;;
82637;SDS011;72318;36.628;-121.932;2023-09-12T12:39:23;17.20;;;2.42;;
82637;SDS011;72318;36.628;-121.932;2023-09-12T12:41:53;18.25;;;3.53;;
82637;SDS011;72318;36.628;-121.932;2023-09-12T12:44:19;28.45;;;3.55;;
82637;SDS011;72318;36.628;-121.932;2023-09-12T12:49:19;18.77;;;3.15;;
82637;SDS011;72318;36.628;-121.932;2023-09-12T12:51:47;19.23;;;3.35;;
82637;SDS011;72318;36.628;-121.932;2023-09-12T12:54:14;22.83;;;2.92;;
82637;SDS011;72318;36.628;-121.932;2023-09-12T12:56:42;15.70;;;3.72;;
82637;SDS011;72318;36.628;-121.932;2023-09-12T12:59:10;23.35;;;3.03;;
82637;SDS011;72318;36.628;-121.932;2023-09-12T13:01:37;16.77;;;2.92;;
82637;SDS011;72318;36.628;-121.932;2023-09-12T13:04:05;21.95;;;3.22;;
82637;SDS011;72318;36.628;-121.932;2023-09-12T13:06:32;12.70;;;2.90;;
82637;SDS011;72318;36.628;-121.932;2023-09-12T13:09:01;20.88;;;3.10;;
82637;SDS011;72318;36.628;-121.932;2023-09-12T13:11:31;20.50;;;3.85;;
82637;SDS011;72318;36.628;-121.932;2023-09-12T13:14:01;24.27;;;3.72;;
82637;SDS011;72318;36.628;-121.932;2023-09-12T13:16:34;21.55;;;3.03;;
82637;SDS011;72318;36.628;-121.932;2023-09-12T13:19:00;14.85;;;2.10;;
82637;SDS011;72318;36.628;-121.932;2023-09-12T13:21:26;18.50;;;2.08;;
82637;SDS011;72318;36.628;-121.932;2023-09-12T13:23:53;22.17;;;2.90;;
82637;SDS011;72318;36.628;-121.932;2023-09-12T13:26:19;13.25;;;1.70;;
82637;SDS011;72318;36.628;-121.932;2023-09-12T13:28:45;11.43;;;2.03;;
82637;SDS011;72318;36.628;-121.932;2023-09-12T13:31:12;11.35;;;2.30;;
82637;SDS011;72318;36.628;-121.932;2023-09-12T13:33:38;13.57;;;2.10;;
82637;SDS011;72318;36.628;-121.932;2023-09-12T13:36:04;17.17;;;2.35;;
82637;SDS011;72318;36.628;-121.932;2023-09-12T13:38:31;11.07;;;1.88;;
82637;SDS011;72318;36.628;-121.932;2023-09-12T13:40:57;7.03;;;1.83;;
82637;SDS011;72318;36.628;-121.932;2023-09-12T13:43:23;10.65;;;1.80;;
82637;SDS011;72318;36.628;-121.932;2023-09-12T13:45:50;12.43;;;1.65;;
82637;SDS011;72318;36.628;-121.932;2023-09-12T13:48:16;14.60;;;2.20;;
82637;SDS011;72318;36.628;-121.932;2023-09-12T13:50:43;16.05;;;1.95;;
82637;SDS011;72318;36.628;-121.932;2023-09-12T13:53:09;15.50;;;2.33;;
82637;SDS011;72318;36.628;-121.932;2023-09-12T13:55:36;12.82;;;1.92;;
82637;SDS011;72318;36.628;-121.932;2023-09-12T13:58:03;15.57;;;2.15;;
82637;SDS011;72318;36.628;-121.932;2023-09-12T14:00:30;15.25;;;2.10;;
82637;SDS011;72318;36.628;-121.932;2023-09-12T14:02:58;13.60;;;2.17;;
82637;SDS011;72318;36.628;-121.932;2023-09-12T14:05:24;9.38;;;2.15;;
82637;SDS011;72318;36.628;-121.932;2023-09-12T14:07:51;12.73;;;2.13;;
82637;SDS011;72318;36.628;-121.932;2023-09-12T14:10:17;13.23;;;2.20;;
82637;SDS011;72318;36.628;-121.932;2023-09-12T14:12:43;10.68;;;2.25;;
82637;SDS011;72318;36.628;-121.932;2023-09-12T14:15:11;6.28;;;1.80;;
82637;SDS011;72318;36.628;-121.932;2023-09-12T14:17:39;22.73;;;1.60;;
82637;SDS011;72318;36.628;-121.932;2023-09-12T14:20:06;19.30;;;2.90;;
82637;SDS011;72318;36.628;-121.932;2023-09-12T14:22:33;13.93;;;2.67;;
82637;SDS011;72318;36.628;-121.932;2023-09-12T14:25:00;16.05;;;2.58;;